sensor_id;sensor_type;location;lat;lon;timestamp;P1;durP1;ratioP1;P2;durP2;ratioP2
16228;SDS011;8222;51.462;12.630;2022-07-29T00:00:58;1.85;;;1.63;;
16228;SDS011;8222;51.462;12.630;2022-07-29T00:03:24;3.00;;;1.67;;
16228;SDS011;8222;51.462;12.630;2022-07-29T00:05:50;2.38;;;1.58;;
16228;SDS011;8222;51.462;12.630;2022-07-29T00:08:17;2.47;;;1.85;;
16228;SDS011;8222;51.462;12.630;2022-07-29T00:10:43;1.70;;;1.60;;
16228;SDS011;8222;51.462;12.630;2022-07-29T00:13:09;2.47;;;2.00;;
16228;SDS011;8222;51.462;12.630;2022-07-29T00:15:35;1.73;;;1.60;;
16228;SDS011;8222;51.462;12.630;2022-07-29T00:18:00;2.28;;;1.70;;
16228;SDS011;8222;51.462;12.630;2022-07-29T00:20:26;2.97;;;1.93;;
16228;SDS011;8222;51.462;12.630;2022-07-29T00:22:52;4.03;;;1.90;;
16228;SDS011;8222;51.462;12.630;2022-07-29T00:25:18;3.25;;;1.80;;
16228;SDS011;8222;51.462;12.630;2022-07-29T00:27:44;2.08;;;1.88;;
16228;SDS011;8222;51.462;12.630;2022-07-29T00:30:11;1.90;;;1.73;;
16228;SDS011;8222;51.462;12.630;2022-07-29T00:32:36;3.17;;;1.70;;
16228;SDS011;8222;51.462;12.630;2022-07-29T00:35:02;1.92;;;1.80;;
16228;SDS011;8222;51.462;12.630;2022-07-29T00:37:47;2.20;;;1.90;;
16228;SDS011;8222;51.462;12.630;2022-07-29T00:40:13;2.30;;;2.10;;
16228;SDS011;8222;51.462;12.630;2022-07-29T00:42:43;2.30;;;1.70;;
16228;SDS011;8222;51.462;12.630;2022-07-29T00:45:10;2.05;;;1.75;;
16228;SDS011;8222;51.462;12.630;2022-07-29T00:47:36;2.30;;;1.58;;
16228;SDS011;8222;51.462;12.630;2022-07-29T00:50:03;1.80;;;1.38;;
16228;SDS011;8222;51.462;12.630;2022-07-29T00:52:31;2.17;;;1.85;;
16228;SDS011;8222;51.462;12.630;2022-07-29T00:54:58;5.32;;;1.92;;
16228;SDS011;8222;51.462;12.630;2022-07-29T00:57:23;3.17;;;1.77;;
16228;SDS011;8222;51.462;12.630;2022-07-29T00:59:49;4.43;;;1.80;;
16228;SDS011;8222;51.462;12.630;2022-07-29T01:02:15;3.10;;;2.10;;
16228;SDS011;8222;51.462;12.630;2022-07-29T01:04:40;1.88;;;1.48;;
16228;SDS011;8222;51.462;12.630;2022-07-29T01:07:06;1.85;;;1.58;;
16228;SDS011;8222;51.462;12.630;2022-07-29T01:09:32;3.17;;;1.70;;
16228;SDS011;8222;51.462;12.630;2022-07-29T01:12:00;1.70;;;1.60;;
16228;SDS011;8222;51.462;12.630;2022-07-29T01:14:27;3.55;;;2.10;;
16228;SDS011;8222;51.462;12.630;2022-07-29T01:17:14;2.92;;;1.83;;
16228;SDS011;8222;51.462;12.630;2022-07-29T01:19:46;1.77;;;1.60;;
16228;SDS011;8222;51.462;12.630;2022-07-29T01:30:30;2.50;;;1.75;;
16228;SDS011;8222;51.462;12.630;2022-07-29T01:32:59;2.72;;;2.00;;
16228;SDS011;8222;51.462;12.630;2022-07-29T01:35:33;2.35;;;1.90;;
16228;SDS011;8222;51.462;12.630;2022-07-29T01:40:54;2.30;;;1.85;;
16228;SDS011;8222;51.462;12.630;2022-07-29T01:43:31;3.00;;;1.95;;
16228;SDS011;8222;51.462;12.630;2022-07-29T01:46:05;2.80;;;1.90;;
16228;SDS011;8222;51.462;12.630;2022-07-29T01:48:48;2.37;;;1.80;;
16228;SDS011;8222;51.462;12.630;2022-07-29T01:54:08;2.60;;;1.93;;
16228;SDS011;8222;51.462;12.630;2022-07-29T01:56:39;2.50;;;1.70;;
16228;SDS011;8222;51.462;12.630;2022-07-29T01:59:07;2.10;;;1.80;;
16228;SDS011;8222;51.462;12.630;2022-07-29T02:01:34;2.93;;;1.80;;
16228;SDS011;8222;51.462;12.630;2022-07-29T02:04:02;3.38;;;1.80;;
16228;SDS011;8222;51.462;12.630;2022-07-29T02:06:30;3.38;;;1.75;;
16228;SDS011;8222;51.462;12.630;2022-07-29T02:08:58;2.17;;;1.88;;
16228;SDS011;8222;51.462;12.630;2022-07-29T02:11:25;4.65;;;1.80;;
16228;SDS011;8222;51.462;12.630;2022-07-29T02:13:52;2.43;;;1.90;;
16228;SDS011;8222;51.462;12.630;2022-07-29T02:16:21;2.53;;;1.60;;
16228;SDS011;8222;51.462;12.630;2022-07-29T02:18:48;2.05;;;1.65;;
16228;SDS011;8222;51.462;12.630;2022-07-29T02:21:19;1.80;;;1.70;;
16228;SDS011;8222;51.462;12.630;2022-07-29T02:23:48;2.67;;;1.60;;
16228;SDS011;8222;51.462;12.630;2022-07-29T02:26:14;2.00;;;1.80;;
16228;SDS011;8222;51.462;12.630;2022-07-29T02:28:41;5.45;;;2.38;;
16228;SDS011;8222;51.462;12.630;2022-07-29T02:31:07;2.45;;;1.88;;
16228;SDS011;8222;51.462;12.630;2022-07-29T02:33:34;2.70;;;1.73;;
16228;SDS011;8222;51.462;12.630;2022-07-29T02:36:00;2.78;;;1.98;;
16228;SDS011;8222;51.462;12.630;2022-07-29T02:38:27;4.10;;;1.92;;
16228;SDS011;8222;51.462;12.630;2022-07-29T02:41:15;2.53;;;2.03;;
16228;SDS011;8222;51.462;12.630;2022-07-29T02:43:50;1.70;;;1.60;;
16228;SDS011;8222;51.462;12.630;2022-07-29T02:46:42;2.05;;;1.85;;
16228;SDS011;8222;51.462;12.630;2022-07-29T02:54:37;3.83;;;1.97;;
16228;SDS011;8222;51.462;12.630;2022-07-29T02:57:28;2.47;;;2.00;;
16228;SDS011;8222;51.462;12.630;2022-07-29T03:00:14;2.25;;;1.80;;
16228;SDS011;8222;51.462;12.630;2022-07-29T03:02:45;1.92;;;1.77;;
16228;SDS011;8222;51.462;12.630;2022-07-29T03:05:15;5.72;;;2.00;;
16228;SDS011;8222;51.462;12.630;2022-07-29T03:07:48;3.20;;;2.13;;
16228;SDS011;8222;51.462;12.630;2022-07-29T03:10:17;4.13;;;1.90;;
16228;SDS011;8222;51.462;12.630;2022-07-29T03:12:43;5.55;;;1.95;;
16228;SDS011;8222;51.462;12.630;2022-07-29T03:15:10;2.80;;;1.85;;
16228;SDS011;8222;51.462;12.630;2022-07-29T03:17:36;4.68;;;2.08;;
16228;SDS011;8222;51.462;12.630;2022-07-29T03:20:03;3.00;;;1.90;;
16228;SDS011;8222;51.462;12.630;2022-07-29T03:22:29;3.42;;;1.70;;
16228;SDS011;8222;51.462;12.630;2022-07-29T03:24:56;3.10;;;1.70;;
16228;SDS011;8222;51.462;12.630;2022-07-29T03:27:21;4.30;;;2.17;;
16228;SDS011;8222;51.462;12.630;2022-07-29T03:29:47;4.07;;;2.70;;
16228;SDS011;8222;51.462;12.630;2022-07-29T03:32:13;3.17;;;2.03;;
16228;SDS011;8222;51.462;12.630;2022-07-29T03:34:38;2.40;;;2.10;;
16228;SDS011;8222;51.462;12.630;2022-07-29T03:37:05;4.10;;;2.13;;
16228;SDS011;8222;51.462;12.630;2022-07-29T03:39:31;3.13;;;1.95;;
16228;SDS011;8222;51.462;12.630;2022-07-29T03:42:01;3.50;;;2.10;;
16228;SDS011;8222;51.462;12.630;2022-07-29T03:44:28;3.10;;;2.22;;
16228;SDS011;8222;51.462;12.630;2022-07-29T03:46:55;2.08;;;1.92;;
16228;SDS011;8222;51.462;12.630;2022-07-29T03:49:24;3.10;;;1.95;;
16228;SDS011;8222;51.462;12.630;2022-07-29T03:51:52;3.60;;;2.00;;
16228;SDS011;8222;51.462;12.630;2022-07-29T03:54:18;2.25;;;2.05;;
16228;SDS011;8222;51.462;12.630;2022-07-29T03:56:45;2.13;;;1.80;;
16228;SDS011;8222;51.462;12.630;2022-07-29T03:59:13;2.83;;;2.13;;
16228;SDS011;8222;51.462;12.630;2022-07-29T04:01:40;2.57;;;2.00;;
16228;SDS011;8222;51.462;12.630;2022-07-29T04:04:06;2.50;;;2.30;;
16228;SDS011;8222;51.462;12.630;2022-07-29T04:06:39;2.45;;;2.17;;
16228;SDS011;8222;51.462;12.630;2022-07-29T04:09:06;3.60;;;2.20;;
16228;SDS011;8222;51.462;12.630;2022-07-29T04:11:32;2.38;;;1.90;;
16228;SDS011;8222;51.462;12.630;2022-07-29T04:13:59;4.50;;;2.17;;
16228;SDS011;8222;51.462;12.630;2022-07-29T04:16:24;3.50;;;2.10;;
16228;SDS011;8222;51.462;12.630;2022-07-29T04:18:50;3.45;;;2.22;;
16228;SDS011;8222;51.462;12.630;2022-07-29T04:21:16;2.30;;;2.05;;
16228;SDS011;8222;51.462;12.630;2022-07-29T04:23:41;2.38;;;2.15;;
16228;SDS011;8222;51.462;12.630;2022-07-29T04:26:10;2.88;;;1.98;;
16228;SDS011;8222;51.462;12.630;2022-07-29T04:28:35;4.35;;;2.58;;
16228;SDS011;8222;51.462;12.630;2022-07-29T04:31:03;2.70;;;1.97;;
16228;SDS011;8222;51.462;12.630;2022-07-29T04:33:28;5.55;;;2.25;;
16228;SDS011;8222;51.462;12.630;2022-07-29T04:35:54;2.47;;;2.17;;
16228;SDS011;8222;51.462;12.630;2022-07-29T04:38:20;2.73;;;2.50;;
16228;SDS011;8222;51.462;12.630;2022-07-29T04:40:47;3.03;;;2.30;;
16228;SDS011;8222;51.462;12.630;2022-07-29T04:43:12;3.75;;;2.10;;
16228;SDS011;8222;51.462;12.630;2022-07-29T04:45:38;3.17;;;2.43;;
16228;SDS011;8222;51.462;12.630;2022-07-29T04:48:04;3.10;;;2.10;;
16228;SDS011;8222;51.462;12.630;2022-07-29T04:50:30;3.50;;;2.30;;
16228;SDS011;8222;51.462;12.630;2022-07-29T04:52:56;3.25;;;2.08;;
16228;SDS011;8222;51.462;12.630;2022-07-29T04:55:22;3.87;;;2.43;;
16228;SDS011;8222;51.462;12.630;2022-07-29T04:57:48;2.15;;;1.98;;
16228;SDS011;8222;51.462;12.630;2022-07-29T05:00:13;3.40;;;1.90;;
16228;SDS011;8222;51.462;12.630;2022-07-29T05:02:39;2.92;;;2.25;;
16228;SDS011;8222;51.462;12.630;2022-07-29T05:05:05;3.03;;;2.63;;
16228;SDS011;8222;51.462;12.630;2022-07-29T05:07:31;2.63;;;2.10;;
16228;SDS011;8222;51.462;12.630;2022-07-29T05:09:57;2.63;;;2.40;;
16228;SDS011;8222;51.462;12.630;2022-07-29T05:12:23;3.90;;;2.40;;
16228;SDS011;8222;51.462;12.630;2022-07-29T05:14:49;3.35;;;2.13;;
16228;SDS011;8222;51.462;12.630;2022-07-29T05:17:15;4.10;;;2.35;;
16228;SDS011;8222;51.462;12.630;2022-07-29T05:19:40;3.40;;;2.53;;
16228;SDS011;8222;51.462;12.630;2022-07-29T05:22:06;4.50;;;2.40;;
16228;SDS011;8222;51.462;12.630;2022-07-29T05:24:32;4.60;;;2.37;;
16228;SDS011;8222;51.462;12.630;2022-07-29T05:26:58;4.05;;;3.03;;
16228;SDS011;8222;51.462;12.630;2022-07-29T05:29:23;2.70;;;2.42;;
16228;SDS011;8222;51.462;12.630;2022-07-29T05:31:49;4.07;;;2.50;;
16228;SDS011;8222;51.462;12.630;2022-07-29T05:34:16;3.78;;;2.60;;
16228;SDS011;8222;51.462;12.630;2022-07-29T05:36:42;4.85;;;2.75;;
16228;SDS011;8222;51.462;12.630;2022-07-29T05:39:07;4.45;;;2.55;;
16228;SDS011;8222;51.462;12.630;2022-07-29T05:41:33;3.20;;;2.50;;
16228;SDS011;8222;51.462;12.630;2022-07-29T05:43:59;3.30;;;2.67;;
16228;SDS011;8222;51.462;12.630;2022-07-29T05:46:24;3.90;;;2.60;;
16228;SDS011;8222;51.462;12.630;2022-07-29T05:48:50;3.30;;;2.60;;
16228;SDS011;8222;51.462;12.630;2022-07-29T05:51:16;3.60;;;2.47;;
16228;SDS011;8222;51.462;12.630;2022-07-29T05:53:41;4.63;;;2.30;;
16228;SDS011;8222;51.462;12.630;2022-07-29T05:56:07;4.50;;;2.27;;
16228;SDS011;8222;51.462;12.630;2022-07-29T05:58:33;2.67;;;2.47;;
16228;SDS011;8222;51.462;12.630;2022-07-29T06:00:59;3.53;;;2.67;;
16228;SDS011;8222;51.462;12.630;2022-07-29T06:03:25;3.23;;;2.57;;
16228;SDS011;8222;51.462;12.630;2022-07-29T06:05:51;4.78;;;2.70;;
16228;SDS011;8222;51.462;12.630;2022-07-29T06:08:17;4.57;;;2.78;;
16228;SDS011;8222;51.462;12.630;2022-07-29T06:10:43;3.95;;;2.53;;
16228;SDS011;8222;51.462;12.630;2022-07-29T06:13:10;2.33;;;2.10;;
16228;SDS011;8222;51.462;12.630;2022-07-29T06:15:36;5.27;;;2.50;;
16228;SDS011;8222;51.462;12.630;2022-07-29T06:18:02;3.47;;;2.60;;
16228;SDS011;8222;51.462;12.630;2022-07-29T06:20:28;2.60;;;2.40;;
16228;SDS011;8222;51.462;12.630;2022-07-29T06:22:55;3.85;;;2.55;;
16228;SDS011;8222;51.462;12.630;2022-07-29T06:25:21;3.42;;;2.50;;
16228;SDS011;8222;51.462;12.630;2022-07-29T06:27:46;5.40;;;2.55;;
16228;SDS011;8222;51.462;12.630;2022-07-29T06:30:12;3.00;;;2.63;;
16228;SDS011;8222;51.462;12.630;2022-07-29T06:32:38;3.87;;;2.50;;
16228;SDS011;8222;51.462;12.630;2022-07-29T06:35:04;2.93;;;2.60;;
16228;SDS011;8222;51.462;12.630;2022-07-29T06:37:30;2.90;;;2.55;;
16228;SDS011;8222;51.462;12.630;2022-07-29T06:39:56;4.45;;;2.80;;
16228;SDS011;8222;51.462;12.630;2022-07-29T06:42:43;3.50;;;2.60;;
16228;SDS011;8222;51.462;12.630;2022-07-29T06:45:10;5.90;;;2.40;;
16228;SDS011;8222;51.462;12.630;2022-07-29T06:47:36;4.15;;;2.92;;
16228;SDS011;8222;51.462;12.630;2022-07-29T06:50:02;3.70;;;2.37;;
16228;SDS011;8222;51.462;12.630;2022-07-29T06:52:28;3.97;;;2.38;;
16228;SDS011;8222;51.462;12.630;2022-07-29T06:54:54;4.90;;;2.83;;
16228;SDS011;8222;51.462;12.630;2022-07-29T06:57:20;3.03;;;2.53;;
16228;SDS011;8222;51.462;12.630;2022-07-29T06:59:46;3.30;;;2.60;;
16228;SDS011;8222;51.462;12.630;2022-07-29T07:02:12;3.00;;;2.65;;
16228;SDS011;8222;51.462;12.630;2022-07-29T07:04:38;3.90;;;2.97;;
16228;SDS011;8222;51.462;12.630;2022-07-29T07:07:03;3.40;;;2.78;;
16228;SDS011;8222;51.462;12.630;2022-07-29T07:09:29;3.33;;;2.83;;
16228;SDS011;8222;51.462;12.630;2022-07-29T07:11:55;3.93;;;2.80;;
16228;SDS011;8222;51.462;12.630;2022-07-29T07:14:20;4.10;;;3.50;;
16228;SDS011;8222;51.462;12.630;2022-07-29T07:16:46;4.43;;;3.20;;
16228;SDS011;8222;51.462;12.630;2022-07-29T07:19:12;3.95;;;3.60;;
16228;SDS011;8222;51.462;12.630;2022-07-29T07:21:38;3.80;;;3.50;;
16228;SDS011;8222;51.462;12.630;2022-07-29T07:24:03;3.85;;;3.55;;
16228;SDS011;8222;51.462;12.630;2022-07-29T07:26:29;5.90;;;3.20;;
16228;SDS011;8222;51.462;12.630;2022-07-29T07:28:55;4.57;;;3.55;;
16228;SDS011;8222;51.462;12.630;2022-07-29T07:31:21;3.80;;;3.50;;
16228;SDS011;8222;51.462;12.630;2022-07-29T07:33:47;5.03;;;3.65;;
16228;SDS011;8222;51.462;12.630;2022-07-29T07:36:13;7.07;;;3.90;;
16228;SDS011;8222;51.462;12.630;2022-07-29T07:38:38;4.15;;;3.75;;
16228;SDS011;8222;51.462;12.630;2022-07-29T07:41:04;5.00;;;3.97;;
16228;SDS011;8222;51.462;12.630;2022-07-29T07:43:30;3.92;;;3.50;;
16228;SDS011;8222;51.462;12.630;2022-07-29T07:45:56;5.70;;;3.90;;
16228;SDS011;8222;51.462;12.630;2022-07-29T07:48:22;5.28;;;3.80;;
16228;SDS011;8222;51.462;12.630;2022-07-29T07:50:47;4.57;;;3.90;;
16228;SDS011;8222;51.462;12.630;2022-07-29T07:53:14;4.15;;;3.55;;
16228;SDS011;8222;51.462;12.630;2022-07-29T07:55:40;4.93;;;4.00;;
16228;SDS011;8222;51.462;12.630;2022-07-29T07:58:07;4.18;;;3.63;;
16228;SDS011;8222;51.462;12.630;2022-07-29T08:00:34;4.30;;;3.53;;
16228;SDS011;8222;51.462;12.630;2022-07-29T08:02:59;4.93;;;3.45;;
16228;SDS011;8222;51.462;12.630;2022-07-29T08:05:25;4.53;;;3.47;;
16228;SDS011;8222;51.462;12.630;2022-07-29T08:07:51;5.07;;;3.50;;
16228;SDS011;8222;51.462;12.630;2022-07-29T08:10:17;4.83;;;3.30;;
16228;SDS011;8222;51.462;12.630;2022-07-29T08:13:04;7.80;;;3.50;;
16228;SDS011;8222;51.462;12.630;2022-07-29T08:15:31;4.17;;;3.33;;
16228;SDS011;8222;51.462;12.630;2022-07-29T08:17:57;4.38;;;3.10;;
16228;SDS011;8222;51.462;12.630;2022-07-29T08:20:23;4.45;;;3.40;;
16228;SDS011;8222;51.462;12.630;2022-07-29T08:22:49;5.90;;;3.63;;
16228;SDS011;8222;51.462;12.630;2022-07-29T08:25:14;4.07;;;3.40;;
16228;SDS011;8222;51.462;12.630;2022-07-29T08:27:40;5.75;;;3.45;;
16228;SDS011;8222;51.462;12.630;2022-07-29T08:30:06;6.40;;;3.80;;
16228;SDS011;8222;51.462;12.630;2022-07-29T08:32:32;5.03;;;3.35;;
16228;SDS011;8222;51.462;12.630;2022-07-29T08:34:58;5.20;;;3.47;;
16228;SDS011;8222;51.462;12.630;2022-07-29T08:37:24;6.57;;;4.03;;
16228;SDS011;8222;51.462;12.630;2022-07-29T08:39:49;4.95;;;3.33;;
16228;SDS011;8222;51.462;12.630;2022-07-29T08:42:15;5.97;;;3.70;;
16228;SDS011;8222;51.462;12.630;2022-07-29T08:44:41;4.95;;;3.85;;
16228;SDS011;8222;51.462;12.630;2022-07-29T08:47:07;4.07;;;3.60;;
16228;SDS011;8222;51.462;12.630;2022-07-29T08:49:34;4.28;;;3.63;;
16228;SDS011;8222;51.462;12.630;2022-07-29T08:52:01;5.32;;;3.80;;
16228;SDS011;8222;51.462;12.630;2022-07-29T08:54:27;4.30;;;3.78;;
16228;SDS011;8222;51.462;12.630;2022-07-29T08:56:54;5.05;;;3.80;;
16228;SDS011;8222;51.462;12.630;2022-07-29T08:59:21;5.50;;;3.47;;
16228;SDS011;8222;51.462;12.630;2022-07-29T09:01:49;4.47;;;3.80;;
16228;SDS011;8222;51.462;12.630;2022-07-29T09:04:18;5.97;;;4.07;;
16228;SDS011;8222;51.462;12.630;2022-07-29T09:06:46;6.93;;;4.20;;
16228;SDS011;8222;51.462;12.630;2022-07-29T09:09:14;4.25;;;3.60;;
16228;SDS011;8222;51.462;12.630;2022-07-29T09:11:41;5.68;;;4.30;;
16228;SDS011;8222;51.462;12.630;2022-07-29T09:14:07;4.38;;;3.67;;
16228;SDS011;8222;51.462;12.630;2022-07-29T09:16:45;5.95;;;4.30;;
16228;SDS011;8222;51.462;12.630;2022-07-29T09:21:52;5.18;;;3.78;;
16228;SDS011;8222;51.462;12.630;2022-07-29T09:24:35;5.13;;;4.50;;
16228;SDS011;8222;51.462;12.630;2022-07-29T09:27:10;5.07;;;4.13;;
16228;SDS011;8222;51.462;12.630;2022-07-29T09:29:44;6.18;;;4.47;;
16228;SDS011;8222;51.462;12.630;2022-07-29T09:32:10;6.00;;;4.35;;
16228;SDS011;8222;51.462;12.630;2022-07-29T09:34:36;6.43;;;3.97;;
16228;SDS011;8222;51.462;12.630;2022-07-29T09:37:02;6.70;;;3.80;;
16228;SDS011;8222;51.462;12.630;2022-07-29T09:39:38;5.90;;;4.30;;
16228;SDS011;8222;51.462;12.630;2022-07-29T09:42:11;5.88;;;4.82;;
16228;SDS011;8222;51.462;12.630;2022-07-29T09:44:44;6.90;;;5.28;;
16228;SDS011;8222;51.462;12.630;2022-07-29T09:47:16;6.83;;;4.57;;
16228;SDS011;8222;51.462;12.630;2022-07-29T09:49:53;6.18;;;4.53;;
16228;SDS011;8222;51.462;12.630;2022-07-29T09:52:22;5.38;;;4.38;;
16228;SDS011;8222;51.462;12.630;2022-07-29T09:54:49;6.30;;;4.35;;
16228;SDS011;8222;51.462;12.630;2022-07-29T09:57:27;4.27;;;3.87;;
16228;SDS011;8222;51.462;12.630;2022-07-29T10:00:01;4.95;;;3.95;;
16228;SDS011;8222;51.462;12.630;2022-07-29T10:02:33;6.15;;;4.68;;
16228;SDS011;8222;51.462;12.630;2022-07-29T10:05:00;5.07;;;4.10;;
16228;SDS011;8222;51.462;12.630;2022-07-29T10:07:42;4.63;;;4.22;;
16228;SDS011;8222;51.462;12.630;2022-07-29T10:10:18;4.72;;;4.25;;
16228;SDS011;8222;51.462;12.630;2022-07-29T10:12:55;11.83;;;7.77;;
16228;SDS011;8222;51.462;12.630;2022-07-29T10:15:21;5.10;;;4.32;;
16228;SDS011;8222;51.462;12.630;2022-07-29T10:17:52;6.03;;;4.10;;
16228;SDS011;8222;51.462;12.630;2022-07-29T10:20:19;5.13;;;4.35;;
16228;SDS011;8222;51.462;12.630;2022-07-29T10:22:46;4.70;;;4.30;;
16228;SDS011;8222;51.462;12.630;2022-07-29T10:25:13;4.23;;;3.83;;
16228;SDS011;8222;51.462;12.630;2022-07-29T10:27:41;6.65;;;4.18;;
16228;SDS011;8222;51.462;12.630;2022-07-29T10:30:07;5.95;;;4.05;;
16228;SDS011;8222;51.462;12.630;2022-07-29T10:35:21;3.70;;;3.38;;
16228;SDS011;8222;51.462;12.630;2022-07-29T10:44:06;4.38;;;3.97;;
16228;SDS011;8222;51.462;12.630;2022-07-29T10:46:39;5.47;;;3.90;;
16228;SDS011;8222;51.462;12.630;2022-07-29T10:49:13;3.33;;;3.03;;
16228;SDS011;8222;51.462;12.630;2022-07-29T10:59:42;5.15;;;3.20;;
16228;SDS011;8222;51.462;12.630;2022-07-29T11:07:31;5.07;;;3.42;;
16228;SDS011;8222;51.462;12.630;2022-07-29T11:15:05;5.35;;;3.05;;
16228;SDS011;8222;51.462;12.630;2022-07-29T11:25:43;3.22;;;2.92;;
16228;SDS011;8222;51.462;12.630;2022-07-29T11:28:13;4.50;;;3.17;;
16228;SDS011;8222;51.462;12.630;2022-07-29T11:30:52;5.33;;;3.07;;
16228;SDS011;8222;51.462;12.630;2022-07-29T11:33:53;3.38;;;2.63;;
16228;SDS011;8222;51.462;12.630;2022-07-29T11:36:13;4.57;;;3.20;;
16228;SDS011;8222;51.462;12.630;2022-07-29T11:38:40;4.60;;;2.97;;
16228;SDS011;8222;51.462;12.630;2022-07-29T11:43:48;6.55;;;3.00;;
16228;SDS011;8222;51.462;12.630;2022-07-29T11:46:18;3.65;;;3.20;;
16228;SDS011;8222;51.462;12.630;2022-07-29T11:49:02;3.47;;;2.92;;
16228;SDS011;8222;51.462;12.630;2022-07-29T11:51:29;3.60;;;2.97;;
16228;SDS011;8222;51.462;12.630;2022-07-29T11:53:56;4.45;;;3.08;;
16228;SDS011;8222;51.462;12.630;2022-07-29T11:56:23;3.50;;;3.00;;
16228;SDS011;8222;51.462;12.630;2022-07-29T11:59:00;3.72;;;3.08;;
16228;SDS011;8222;51.462;12.630;2022-07-29T12:01:30;3.67;;;3.35;;
16228;SDS011;8222;51.462;12.630;2022-07-29T12:04:06;5.72;;;3.30;;
16228;SDS011;8222;51.462;12.630;2022-07-29T12:06:33;3.83;;;3.15;;
16228;SDS011;8222;51.462;12.630;2022-07-29T12:08:59;6.97;;;3.72;;
16228;SDS011;8222;51.462;12.630;2022-07-29T12:11:25;4.65;;;3.15;;
16228;SDS011;8222;51.462;12.630;2022-07-29T12:13:51;5.60;;;3.17;;
16228;SDS011;8222;51.462;12.630;2022-07-29T12:16:17;3.38;;;3.08;;
16228;SDS011;8222;51.462;12.630;2022-07-29T12:18:54;4.93;;;3.47;;
16228;SDS011;8222;51.462;12.630;2022-07-29T12:21:21;3.80;;;3.25;;
16228;SDS011;8222;51.462;12.630;2022-07-29T12:23:53;4.10;;;2.97;;
16228;SDS011;8222;51.462;12.630;2022-07-29T12:26:20;3.45;;;3.22;;
16228;SDS011;8222;51.462;12.630;2022-07-29T12:28:45;3.55;;;2.97;;
16228;SDS011;8222;51.462;12.630;2022-07-29T12:31:15;4.00;;;3.30;;
16228;SDS011;8222;51.462;12.630;2022-07-29T12:33:41;3.58;;;3.28;;
16228;SDS011;8222;51.462;12.630;2022-07-29T12:36:08;6.55;;;3.50;;
16228;SDS011;8222;51.462;12.630;2022-07-29T12:38:34;3.80;;;3.38;;
16228;SDS011;8222;51.462;12.630;2022-07-29T12:41:01;3.50;;;3.20;;
16228;SDS011;8222;51.462;12.630;2022-07-29T12:43:26;3.90;;;3.20;;
16228;SDS011;8222;51.462;12.630;2022-07-29T12:45:53;5.95;;;3.70;;
16228;SDS011;8222;51.462;12.630;2022-07-29T12:48:36;3.60;;;3.30;;
16228;SDS011;8222;51.462;12.630;2022-07-29T12:51:04;3.50;;;3.20;;
16228;SDS011;8222;51.462;12.630;2022-07-29T12:53:31;3.75;;;3.08;;
16228;SDS011;8222;51.462;12.630;2022-07-29T12:55:57;4.00;;;3.10;;
16228;SDS011;8222;51.462;12.630;2022-07-29T12:58:27;3.40;;;3.10;;
16228;SDS011;8222;51.462;12.630;2022-07-29T13:00:59;2.83;;;2.58;;
16228;SDS011;8222;51.462;12.630;2022-07-29T13:03:25;3.35;;;3.05;;
16228;SDS011;8222;51.462;12.630;2022-07-29T13:05:51;3.80;;;3.40;;
16228;SDS011;8222;51.462;12.630;2022-07-29T13:08:17;5.93;;;3.80;;
16228;SDS011;8222;51.462;12.630;2022-07-29T13:10:46;3.53;;;3.23;;
16228;SDS011;8222;51.462;12.630;2022-07-29T13:13:13;3.83;;;3.53;;
16228;SDS011;8222;51.462;12.630;2022-07-29T13:15:43;3.83;;;3.53;;
16228;SDS011;8222;51.462;12.630;2022-07-29T13:18:33;3.78;;;3.47;;
16228;SDS011;8222;51.462;12.630;2022-07-29T13:21:13;4.73;;;3.67;;
16228;SDS011;8222;51.462;12.630;2022-07-29T13:23:40;3.73;;;3.00;;
16228;SDS011;8222;51.462;12.630;2022-07-29T13:26:06;3.90;;;3.58;;
16228;SDS011;8222;51.462;12.630;2022-07-29T13:28:33;4.03;;;3.38;;
16228;SDS011;8222;51.462;12.630;2022-07-29T13:30:59;3.70;;;3.40;;
16228;SDS011;8222;51.462;12.630;2022-07-29T13:33:25;4.00;;;3.60;;
16228;SDS011;8222;51.462;12.630;2022-07-29T13:35:51;4.10;;;3.60;;
16228;SDS011;8222;51.462;12.630;2022-07-29T13:38:17;3.42;;;2.97;;
16228;SDS011;8222;51.462;12.630;2022-07-29T13:40:42;3.93;;;3.43;;
16228;SDS011;8222;51.462;12.630;2022-07-29T13:43:09;4.88;;;3.40;;
16228;SDS011;8222;51.462;12.630;2022-07-29T13:45:35;3.90;;;3.00;;
16228;SDS011;8222;51.462;12.630;2022-07-29T13:48:00;4.07;;;3.45;;
16228;SDS011;8222;51.462;12.630;2022-07-29T13:50:26;3.67;;;3.35;;
16228;SDS011;8222;51.462;12.630;2022-07-29T13:52:52;3.67;;;3.08;;
16228;SDS011;8222;51.462;12.630;2022-07-29T13:55:18;4.72;;;3.35;;
16228;SDS011;8222;51.462;12.630;2022-07-29T13:57:44;3.47;;;3.22;;
16228;SDS011;8222;51.462;12.630;2022-07-29T14:00:10;7.38;;;3.40;;
16228;SDS011;8222;51.462;12.630;2022-07-29T14:02:37;3.58;;;3.30;;
16228;SDS011;8222;51.462;12.630;2022-07-29T14:05:03;4.05;;;3.03;;
16228;SDS011;8222;51.462;12.630;2022-07-29T14:07:30;3.70;;;3.40;;
16228;SDS011;8222;51.462;12.630;2022-07-29T14:09:56;4.00;;;3.67;;
16228;SDS011;8222;51.462;12.630;2022-07-29T14:12:22;3.63;;;3.33;;
16228;SDS011;8222;51.462;12.630;2022-07-29T14:14:47;3.70;;;3.40;;
16228;SDS011;8222;51.462;12.630;2022-07-29T14:17:14;3.72;;;3.42;;
16228;SDS011;8222;51.462;12.630;2022-07-29T14:19:40;4.10;;;3.70;;
16228;SDS011;8222;51.462;12.630;2022-07-29T14:22:06;3.63;;;3.33;;
16228;SDS011;8222;51.462;12.630;2022-07-29T14:24:33;3.50;;;3.20;;
16228;SDS011;8222;51.462;12.630;2022-07-29T14:27:00;3.58;;;3.38;;
16228;SDS011;8222;51.462;12.630;2022-07-29T14:29:25;4.68;;;3.63;;
16228;SDS011;8222;51.462;12.630;2022-07-29T14:31:51;3.60;;;3.40;;
16228;SDS011;8222;51.462;12.630;2022-07-29T14:34:17;3.60;;;3.30;;
16228;SDS011;8222;51.462;12.630;2022-07-29T14:36:42;4.37;;;3.47;;
16228;SDS011;8222;51.462;12.630;2022-07-29T14:39:08;4.23;;;3.90;;
16228;SDS011;8222;51.462;12.630;2022-07-29T14:41:34;4.10;;;3.50;;
16228;SDS011;8222;51.462;12.630;2022-07-29T14:43:59;4.47;;;3.47;;
16228;SDS011;8222;51.462;12.630;2022-07-29T14:46:28;4.45;;;3.45;;
16228;SDS011;8222;51.462;12.630;2022-07-29T14:48:54;3.63;;;3.33;;
16228;SDS011;8222;51.462;12.630;2022-07-29T14:51:20;3.70;;;3.40;;
16228;SDS011;8222;51.462;12.630;2022-07-29T14:53:45;6.30;;;3.45;;
16228;SDS011;8222;51.462;12.630;2022-07-29T14:56:11;3.60;;;3.30;;
16228;SDS011;8222;51.462;12.630;2022-07-29T14:58:37;4.50;;;4.10;;
16228;SDS011;8222;51.462;12.630;2022-07-29T15:01:03;4.40;;;4.10;;
16228;SDS011;8222;51.462;12.630;2022-07-29T15:03:29;4.57;;;4.17;;
16228;SDS011;8222;51.462;12.630;2022-07-29T15:05:54;4.07;;;3.78;;
16228;SDS011;8222;51.462;12.630;2022-07-29T15:08:20;5.78;;;3.97;;
16228;SDS011;8222;51.462;12.630;2022-07-29T15:10:46;4.70;;;4.30;;
16228;SDS011;8222;51.462;12.630;2022-07-29T15:13:11;4.80;;;4.40;;
16228;SDS011;8222;51.462;12.630;2022-07-29T15:15:37;4.70;;;4.30;;
16228;SDS011;8222;51.462;12.630;2022-07-29T15:18:03;5.50;;;4.35;;
16228;SDS011;8222;51.462;12.630;2022-07-29T15:20:29;5.53;;;4.43;;
16228;SDS011;8222;51.462;12.630;2022-07-29T15:22:55;4.57;;;4.13;;
16228;SDS011;8222;51.462;12.630;2022-07-29T15:25:21;4.72;;;4.43;;
16228;SDS011;8222;51.462;12.630;2022-07-29T15:27:48;5.32;;;4.93;;
16228;SDS011;8222;51.462;12.630;2022-07-29T15:30:13;5.33;;;4.93;;
16228;SDS011;8222;51.462;12.630;2022-07-29T15:32:42;4.85;;;4.20;;
16228;SDS011;8222;51.462;12.630;2022-07-29T15:35:08;4.72;;;4.28;;
16228;SDS011;8222;51.462;12.630;2022-07-29T15:37:35;5.53;;;4.40;;
16228;SDS011;8222;51.462;12.630;2022-07-29T15:40:01;5.23;;;4.73;;
16228;SDS011;8222;51.462;12.630;2022-07-29T15:42:28;5.15;;;4.47;;
16228;SDS011;8222;51.462;12.630;2022-07-29T15:44:53;4.93;;;4.53;;
16228;SDS011;8222;51.462;12.630;2022-07-29T15:47:20;4.88;;;4.43;;
16228;SDS011;8222;51.462;12.630;2022-07-29T15:49:46;5.10;;;4.35;;
16228;SDS011;8222;51.462;12.630;2022-07-29T15:52:12;4.97;;;4.40;;